Time;durP1;ratioP1;P1;durP2;ratioP2;P2;SDS_P1;SDS_P2;PMS_P1;PMS_P2;Temp;Humidity;BMP_temperature;BMP_pressure;BME280_temperature;BME280_humidity;BME280_pressure;Samples;Min_cycle;Max_cycle;Signal;HPM_P1;HPM_P2
2023/05/20 00:01:09;;;;;;;2.38;1.65;;;16.30;78.20;;;;;;10356131;28;20018;-65
2023/05/20 00:06:10;;;;;;;3.22;1.60;;;16.30;79.00;;;;;;10349962;28;20022;-65
2023/05/20 00:11:11;;;;;;;4.38;1.80;;;16.30;78.50;;;;;;10345548;28;20029;-67
2023/05/20 00:16:11;;;;;;;1.83;1.60;;;16.30;78.50;;;;;;10359743;28;20548;-66
2023/05/20 00:21:12;;;;;;;3.78;1.77;;;16.30;78.60;;;;;;10360077;28;20014;-67
2023/05/20 00:26:12;;;;;;;5.75;1.80;;;16.20;78.70;;;;;;10360697;28;20269;-66
2023/05/20 00:31:13;;;;;;;3.72;1.77;;;16.20;78.80;;;;;;10360548;28;20030;-66
2023/05/20 00:36:14;;;;;;;2.40;1.85;;;16.20;78.90;;;;;;10362790;28;20120;-66
2023/05/20 00:41:14;;;;;;;4.68;1.70;;;16.10;79.50;;;;;;10354012;28;20057;-66
2023/05/20 00:46:15;;;;;;;3.20;1.67;;;16.10;79.10;;;;;;10361958;28;20394;-66
2023/05/20 00:51:16;;;;;;;4.28;1.77;;;16.10;79.20;;;;;;10362523;28;20430;-66
2023/05/20 00:56:17;;;;;;;3.08;1.65;;;16.00;79.20;;;;;;10360769;28;20054;-66
2023/05/20 01:01:17;;;;;;;2.85;1.83;;;16.00;79.40;;;;;;10348735;28;20561;-65
2023/05/20 01:06:18;;;;;;;3.13;1.80;;;16.00;79.50;;;;;;10355040;28;20076;-67
2023/05/20 01:11:37;;;;;;;3.30;1.67;;;16.00;79.60;;;;;;10342634;28;20100;-66
2023/05/20 01:16:39;;;;;;;4.68;1.73;;;15.90;79.90;;;;;;10358653;28;20429;-66
2023/05/20 01:21:41;;;;;;;3.28;1.80;;;16.00;79.80;;;;;;10360365;28;20028;-67
2023/05/20 01:26:41;;;;;;;3.55;1.80;;;16.00;79.90;;;;;;10365929;28;20022;-66
2023/05/20 01:31:43;;;;;;;2.72;1.95;;;15.80;79.90;;;;;;10354927;28;20041;-66
2023/05/20 01:36:45;;;;;;;2.38;1.83;;;15.80;80.00;;;;;;10357906;28;20052;-67
2023/05/20 01:41:47;;;;;;;6.82;1.90;;;15.80;80.10;;;;;;10359518;28;20100;-66
2023/05/20 01:46:49;;;;;;;4.03;1.90;;;15.80;80.20;;;;;;10370681;28;20386;-66
2023/05/20 01:51:49;;;;;;;3.90;1.90;;;15.80;80.30;;;;;;10358491;28;20437;-67
2023/05/20 01:56:50;;;;;;;3.17;1.85;;;15.80;80.30;;;;;;10355382;28;20022;-66
2023/05/20 02:01:51;;;;;;;3.15;1.77;;;15.70;80.40;;;;;;10353754;28;20032;-66
2023/05/20 02:06:52;;;;;;;4.50;1.73;;;15.70;80.40;;;;;;10345829;28;20030;-66
2023/05/20 02:11:52;;;;;;;3.20;1.80;;;15.60;80.50;;;;;;10359541;28;20078;-66
2023/05/20 02:16:53;;;;;;;2.97;1.75;;;15.70;80.70;;;;;;10342441;28;20038;-66
2023/05/20 02:21:53;;;;;;;2.10;1.50;;;15.60;80.60;;;;;;10353161;28;20029;-66
2023/05/20 02:26:56;;;;;;;4.93;1.92;;;15.60;80.70;;;;;;10356026;28;20096;-66
2023/05/20 02:31:57;;;;;;;4.60;1.90;;;15.60;80.80;;;;;;10356953;28;20119;-66
2023/05/20 02:36:57;;;;;;;2.85;1.70;;;15.70;80.90;;;;;;10352692;28;20127;-66
2023/05/20 02:41:58;;;;;;;3.90;1.98;;;15.60;81.00;;;;;;10363373;28;20112;-67
2023/05/20 02:46:59;;;;;;;4.28;1.90;;;15.50;81.00;;;;;;10357172;28;20505;-67
2023/05/20 02:51:59;;;;;;;1.90;1.65;;;15.50;81.00;;;;;;10360660;28;20030;-67
2023/05/20 02:57:01;;;;;;;2.63;1.77;;;15.50;81.10;;;;;;10359664;28;20133;-66
2023/05/20 03:02:02;;;;;;;2.67;1.55;;;15.50;81.20;;;;;;10355756;28;20137;-67
2023/05/20 03:07:03;;;;;;;2.70;1.80;;;15.50;81.30;;;;;;10357076;28;20112;-67
2023/05/20 03:12:03;;;;;;;3.22;1.85;;;15.80;81.50;;;;;;10353610;28;20022;-67
2023/05/20 03:17:04;;;;;;;2.78;1.60;;;15.40;81.40;;;;;;10354776;28;20025;-67
2023/05/20 03:22:05;;;;;;;3.55;1.70;;;15.40;81.50;;;;;;10355726;28;20118;-67
2023/05/20 03:27:05;;;;;;;3.85;1.80;;;15.40;81.50;;;;;;10356962;28;20025;-67
2023/05/20 03:32:06;;;;;;;3.88;1.83;;;15.40;82.20;;;;;;10361243;28;20029;-67
2023/05/20 03:37:07;;;;;;;2.05;1.55;;;15.40;81.70;;;;;;10361342;28;20022;-67
2023/05/20 03:42:07;;;;;;;2.45;1.55;;;15.40;81.70;;;;;;10357026;28;20018;-67
2023/05/20 03:47:09;;;;;;;2.67;1.48;;;15.30;81.80;;;;;;10363933;28;20018;-67
2023/05/20 03:52:10;;;;;;;2.95;1.70;;;15.30;81.80;;;;;;10356477;28;20530;-67
2023/05/20 03:57:10;;;;;;;3.80;1.60;;;15.30;81.90;;;;;;10340553;28;20313;-67
2023/05/20 04:02:11;;;;;;;3.00;1.70;;;15.30;82.00;;;;;;10357643;28;20033;-67
2023/05/20 04:07:11;;;;;;;3.30;1.67;;;15.30;82.00;;;;;;10356302;28;20022;-67
2023/05/20 04:12:12;;;;;;;2.55;1.35;;;15.30;82.10;;;;;;10353548;28;20022;-67
2023/05/20 04:17:13;;;;;;;2.63;1.65;;;15.30;82.10;;;;;;10356718;28;20027;-67
2023/05/20 04:22:13;;;;;;;1.95;1.55;;;15.30;82.20;;;;;;10340240;28;20462;-67
2023/05/20 04:27:15;;;;;;;2.20;1.45;;;15.20;82.10;;;;;;10362089;28;20072;-67
2023/05/20 04:32:17;;;;;;;1.65;1.33;;;15.30;82.20;;;;;;10357197;28;20249;-67
2023/05/20 04:37:18;;;;;;;2.72;1.50;;;15.30;82.30;;;;;;10353864;28;20029;-67
2023/05/20 04:42:21;;;;;;;3.08;1.60;;;15.30;82.30;;;;;;10357042;28;20034;-67
2023/05/20 04:47:21;;;;;;;2.58;1.95;;;15.20;82.30;;;;;;10360915;28;20021;-67
2023/05/20 04:52:26;;;;;;;3.20;1.65;;;15.20;82.40;;;;;;10357227;28;20362;-67
2023/05/20 04:57:27;;;;;;;3.90;1.60;;;15.30;82.60;;;;;;10352527;28;20179;-67
2023/05/20 05:02:27;;;;;;;2.15;1.20;;;15.20;83.10;;;;;;10366016;28;20021;-67
2023/05/20 05:07:28;;;;;;;2.47;1.88;;;15.30;82.60;;;;;;10368633;28;20501;-67
2023/05/20 05:12:28;;;;;;;3.33;1.40;;;15.20;82.60;;;;;;10363822;28;20116;-67
2023/05/20 05:17:29;;;;;;;2.53;1.25;;;15.20;82.70;;;;;;10365038;28;20600;-67
2023/05/20 05:22:29;;;;;;;1.58;1.30;;;15.20;82.70;;;;;;10359977;28;20540;-67
2023/05/20 05:27:30;;;;;;;1.80;1.08;;;15.10;82.70;;;;;;10363352;28;20026;-67
2023/05/20 05:32:31;;;;;;;3.33;1.35;;;15.20;82.90;;;;;;10361253;28;20344;-67
2023/05/20 05:37:32;;;;;;;1.58;1.20;;;15.20;82.70;;;;;;10362607;28;20022;-67
2023/05/20 05:42:34;;;;;;;2.15;1.23;;;15.20;82.70;;;;;;10368101;28;20518;-66
2023/05/20 05:47:35;;;;;;;1.50;1.40;;;15.20;82.70;;;;;;10341557;28;20323;-66
2023/05/20 05:52:35;;;;;;;1.52;1.27;;;15.20;82.70;;;;;;10364670;28;20029;-67
2023/05/20 05:57:36;;;;;;;2.08;1.40;;;15.20;82.70;;;;;;10362674;28;20398;-67
2023/05/20 06:02:37;;;;;;;2.13;1.13;;;15.20;82.90;;;;;;10334779;28;20033;-67
2023/05/20 06:07:37;;;;;;;1.85;1.10;;;15.30;83.10;;;;;;10357539;28;20398;-66
2023/05/20 06:12:38;;;;;;;3.22;2.05;;;15.20;83.00;;;;;;10358642;28;20057;-67
2023/05/20 06:17:38;;;;;;;3.15;1.30;;;15.30;83.10;;;;;;10357967;28;20022;-67
2023/05/20 06:22:39;;;;;;;1.58;1.17;;;15.30;83.10;;;;;;10355110;28;20029;-67
2023/05/20 06:27:40;;;;;;;1.10;1.00;;;15.30;83.10;;;;;;10364182;28;20010;-67
2023/05/20 06:32:40;;;;;;;1.60;1.10;;;15.30;83.10;;;;;;10362215;28;20708;-67
2023/05/20 06:37:41;;;;;;;1.65;1.02;;;15.30;83.00;;;;;;10334324;28;20042;-67
2023/05/20 06:42:41;;;;;;;3.75;1.50;;;15.30;83.20;;;;;;10362138;28;20105;-66
2023/05/20 06:47:42;;;;;;;1.45;1.10;;;15.30;83.20;;;;;;10358869;28;20033;-67
2023/05/20 06:52:43;;;;;;;2.17;1.33;;;15.30;83.30;;;;;;10357375;28;20033;-67
2023/05/20 06:57:43;;;;;;;3.85;1.10;;;15.30;83.30;;;;;;10359251;28;20038;-67
2023/05/20 07:02:44;;;;;;;1.88;1.25;;;15.30;83.40;;;;;;10362207;28;20076;-67
2023/05/20 07:07:45;;;;;;;2.38;1.70;;;15.40;83.40;;;;;;10368771;28;20142;-67
2023/05/20 07:12:46;;;;;;;1.40;0.95;;;15.40;83.40;;;;;;10357831;28;20032;-67
2023/05/20 07:17:46;;;;;;;1.27;1.17;;;15.40;83.40;;;;;;10349202;28;20060;-67
2023/05/20 07:22:49;;;;;;;2.13;1.40;;;15.40;83.60;;;;;;10340816;28;20182;-67
2023/05/20 07:27:50;;;;;;;1.55;1.10;;;15.50;83.80;;;;;;10360470;28;20025;-67
2023/05/20 07:32:51;;;;;;;1.77;1.17;;;15.50;83.80;;;;;;10360441;28;20032;-67
2023/05/20 07:37:51;;;;;;;1.80;1.20;;;15.60;83.80;;;;;;10335115;28;20030;-67
2023/05/20 07:42:52;;;;;;;1.70;1.13;;;15.60;83.80;;;;;;10358769;28;20478;-66
2023/05/20 07:47:53;;;;;;;1.73;1.25;;;15.50;83.80;;;;;;10364215;28;20401;-66
2023/05/20 07:52:53;;;;;;;1.58;1.00;;;15.50;83.90;;;;;;10364932;28;20077;-66
2023/05/20 07:57:54;;;;;;;2.10;0.95;;;15.60;84.00;;;;;;10360138;28;20037;-66
2023/05/20 08:02:54;;;;;;;3.97;1.50;;;15.60;83.90;;;;;;10348907;28;20026;-66
2023/05/20 08:07:55;;;;;;;1.20;1.10;;;15.60;84.00;;;;;;10353296;28;20022;-66
2023/05/20 08:12:56;;;;;;;2.00;1.35;;;15.70;84.30;;;;;;10355529;28;20183;-67
2023/05/20 08:17:56;;;;;;;4.13;1.70;;;15.70;84.30;;;;;;10357722;28;20025;-69
2023/05/20 08:22:57;;;;;;;3.97;1.88;;;15.70;84.40;;;;;;10337494;28;20022;-70
2023/05/20 08:28:02;;;;;;;2.78;2.08;;;15.80;84.10;;;;;;10363515;28;20030;-69
2023/05/20 08:33:03;;;;;;;3.10;1.90;;;15.90;83.60;;;;;;10366913;28;20428;-70
2023/05/20 08:38:04;;;;;;;3.97;2.08;;;16.00;83.70;;;;;;10349029;28;20067;-70
2023/05/20 08:43:06;;;;;;;3.58;2.03;;;16.00;83.20;;;;;;10365213;28;20040;-68
2023/05/20 08:48:07;;;;;;;4.97;2.88;;;16.20;82.50;;;;;;10375691;28;20036;-67
2023/05/20 08:53:07;;;;;;;4.50;2.28;;;16.20;82.30;;;;;;10344803;28;20045;-71
2023/05/20 08:58:09;;;;;;;3.28;1.42;;;16.30;82.40;;;;;;10367790;28;20482;-69
2023/05/20 09:03:10;;;;;;;4.30;1.90;;;16.40;81.40;;;;;;10370362;28;20084;-69
2023/05/20 09:08:11;;;;;;;4.47;1.90;;;16.50;80.70;;;;;;10362822;28;20096;-69
2023/05/20 09:13:11;;;;;;;5.45;1.95;;;16.60;80.60;;;;;;10361185;28;20060;-70
2023/05/20 09:18:12;;;;;;;4.18;1.70;;;16.70;80.70;;;;;;10355659;28;20367;-69
2023/05/20 09:23:13;;;;;;;3.53;1.30;;;16.80;79.80;;;;;;10363305;28;20076;-69
2023/05/20 09:28:13;;;;;;;3.72;2.20;;;16.90;79.10;;;;;;10361960;28;20521;-68
2023/05/20 09:33:14;;;;;;;3.13;1.67;;;16.90;78.90;;;;;;10360344;28;20457;-71
2023/05/20 09:38:16;;;;;;;3.25;2.10;;;17.00;79.10;;;;;;10364790;28;20287;-68
2023/05/20 09:43:17;;;;;;;5.10;2.28;;;17.00;78.80;;;;;;10349134;28;20453;-67
2023/05/20 09:48:17;;;;;;;3.78;1.88;;;17.10;78.50;;;;;;10363573;28;20026;-68
2023/05/20 09:53:19;;;;;;;4.88;2.00;;;17.10;78.60;;;;;;10352082;28;20600;-69
2023/05/20 09:58:19;;;;;;;3.65;2.13;;;17.20;78.20;;;;;;10359623;28;20114;-69
2023/05/20 10:03:23;;;;;;;3.58;1.73;;;17.40;77.40;;;;;;10371255;28;20120;-70
2023/05/20 10:08:52;;;;;;;4.22;1.73;;;17.50;77.10;;;;;;10358620;28;20029;-70
2023/05/20 10:14:17;;;;;;;5.75;1.90;;;17.60;77.10;;;;;;10356412;28;20545;-70
2023/05/20 10:19:18;;;;;;;2.17;1.55;;;17.80;76.30;;;;;;10353818;28;20029;-70
2023/05/20 10:24:29;;;;;;;3.13;1.58;;;17.80;75.90;;;;;;10362181;28;20052;-69
2023/05/20 10:29:50;;;;;;;5.07;2.00;;;17.90;75.20;;;;;;10357667;28;20505;-68
2023/05/20 10:34:51;;;;;;;3.35;1.60;;;18.00;75.30;;;;;;10362667;28;20366;-69
2023/05/20 10:40:11;;;;;;;5.15;1.70;;;18.00;75.00;;;;;;10364982;28;20030;-69
2023/05/20 10:45:27;;;;;;;2.53;1.63;;;18.10;74.00;;;;;;10360372;28;20025;-69
2023/05/20 10:50:34;;;;;;;3.08;1.98;;;18.30;73.90;;;;;;10354966;28;20065;-69
2023/05/20 10:55:37;;;;;;;4.17;1.77;;;18.60;73.40;;;;;;10354338;28;20501;-70
2023/05/20 11:00:38;;;;;;;3.85;2.13;;;18.50;73.20;;;;;;10358677;28;20053;-69
2023/05/20 11:05:39;;;;;;;3.85;1.83;;;18.50;72.50;;;;;;10347773;28;20109;-68
2023/05/20 11:10:41;;;;;;;3.80;2.05;;;18.70;72.70;;;;;;10366097;28;20030;-69
2023/05/20 11:15:42;;;;;;;2.53;2.00;;;18.90;71.90;;;;;;10353849;28;20120;-69
2023/05/20 11:20:45;;;;;;;3.17;1.88;;;18.80;72.60;;;;;;10358792;28;20072;-69
2023/05/20 11:25:45;;;;;;;2.40;1.77;;;19.00;72.50;;;;;;10364559;28;20034;-70
2023/05/20 11:30:46;;;;;;;3.60;1.95;;;18.70;72.50;;;;;;10355561;28;20383;-69
2023/05/20 11:35:48;;;;;;;3.92;1.80;;;18.60;72.80;;;;;;10359750;28;20537;-70
2023/05/20 11:40:54;;;;;;;3.45;1.90;;;18.60;72.50;;;;;;10361300;28;20104;-70
2023/05/20 11:45:58;;;;;;;3.35;2.10;;;18.50;72.10;;;;;;10362041;28;20037;-70
2023/05/20 11:51:01;;;;;;;2.33;1.50;;;18.50;72.10;;;;;;10367827;28;20030;-70
2023/05/20 11:56:02;;;;;;;3.15;1.92;;;18.50;71.90;;;;;;10338515;28;20034;-70
2023/05/20 12:01:03;;;;;;;2.90;1.60;;;18.60;72.10;;;;;;10365940;28;20013;-70
2023/05/20 12:06:03;;;;;;;2.90;1.70;;;18.80;71.30;;;;;;10362358;28;20104;-70
2023/05/20 12:11:04;;;;;;;2.92;1.70;;;19.00;70.90;;;;;;10373760;28;20083;-70
2023/05/20 12:16:05;;;;;;;3.30;1.90;;;19.30;70.60;;;;;;10365210;28;20421;-69
2023/05/20 12:21:05;;;;;;;2.60;1.67;;;19.50;70.10;;;;;;10361335;28;20029;-68
2023/05/20 12:26:06;;;;;;;3.55;2.15;;;19.50;69.50;;;;;;10370974;28;20398;-68
2023/05/20 12:31:06;;;;;;;6.55;1.95;;;19.30;69.90;;;;;;10363943;28;20033;-68
2023/05/20 12:36:07;;;;;;;2.38;1.60;;;19.30;70.40;;;;;;10364194;28;20038;-68
2023/05/20 12:41:08;;;;;;;9.35;2.28;;;19.60;70.10;;;;;;10364531;28;20033;-68
2023/05/20 12:46:08;;;;;;;3.00;1.88;;;19.80;69.20;;;;;;10373792;28;20060;-68
2023/05/20 12:51:09;;;;;;;3.33;1.88;;;19.80;69.70;;;;;;10376317;28;20231;-70
2023/05/20 12:56:10;;;;;;;3.58;2.40;;;19.60;69.50;;;;;;10361638;28;20029;-70
2023/05/20 13:01:10;;;;;;;2.85;1.70;;;19.60;69.30;;;;;;10357984;28;20026;-68
2023/05/20 13:06:11;;;;;;;3.13;1.83;;;19.60;69.50;;;;;;10359553;28;20072;-69
2023/05/20 13:11:11;;;;;;;3.88;2.03;;;20.10;69.20;;;;;;10371325;28;20449;-68
2023/05/20 13:16:12;;;;;;;5.40;1.90;;;20.20;68.50;;;;;;10346026;28;20028;-67
2023/05/20 13:21:13;;;;;;;2.67;2.00;;;20.10;68.60;;;;;;10363659;28;20026;-68
2023/05/20 13:26:14;;;;;;;5.80;2.25;;;19.80;69.20;;;;;;10354082;28;20030;-69
2023/05/20 13:31:14;;;;;;;5.57;2.38;;;20.10;69.00;;;;;;10359998;28;20037;-68
2023/05/20 13:36:15;;;;;;;2.63;2.00;;;20.20;67.70;;;;;;10352983;28;20545;-70
2023/05/20 13:41:16;;;;;;;4.00;1.73;;;20.50;67.80;;;;;;10364278;28;20033;-68
2023/05/20 13:46:17;;;;;;;7.32;2.10;;;20.90;67.20;;;;;;10367996;28;20121;-68
2023/05/20 13:51:17;;;;;;;2.40;1.80;;;21.10;66.40;;;;;;10362112;28;20165;-68
2023/05/20 13:56:18;;;;;;;2.88;1.70;;;21.10;66.60;;;;;;10350691;28;20029;-68
2023/05/20 14:01:19;;;;;;;2.67;1.70;;;21.30;65.90;;;;;;10372995;28;20022;-68
2023/05/20 14:06:19;;;;;;;6.22;1.80;;;20.90;66.00;;;;;;10351420;28;20026;-68
2023/05/20 14:11:20;;;;;;;2.50;1.70;;;20.80;66.00;;;;;;10363091;28;20029;-68
2023/05/20 14:16:21;;;;;;;2.50;1.80;;;20.60;66.80;;;;;;10357114;28;20496;-69
2023/05/20 14:21:21;;;;;;;2.28;1.60;;;20.40;67.10;;;;;;10366573;28;20105;-68
2023/05/20 14:26:22;;;;;;;2.22;2.00;;;20.40;67.40;;;;;;10360166;28;20034;-70
2023/05/20 14:31:22;;;;;;;2.65;1.83;;;20.40;68.30;;;;;;10353510;28;20030;-70
2023/05/20 14:36:23;;;;;;;2.85;1.58;;;20.30;67.70;;;;;;10356179;28;20601;-68
2023/05/20 14:41:24;;;;;;;3.45;1.90;;;20.40;67.50;;;;;;10366041;28;20026;-72
2023/05/20 14:46:25;;;;;;;2.10;1.50;;;20.40;66.80;;;;;;10355443;28;20124;-70
2023/05/20 14:51:27;;;;;;;5.43;2.03;;;20.50;66.50;;;;;;10365368;28;20057;-69
2023/05/20 14:56:28;;;;;;;4.32;1.70;;;20.60;67.00;;;;;;10340296;28;20026;-70
2023/05/20 15:01:28;;;;;;;6.05;1.60;;;20.50;66.30;;;;;;10350798;28;20022;-71
2023/05/20 15:06:30;;;;;;;1.65;1.25;;;20.40;66.10;;;;;;10367327;28;20493;-71
2023/05/20 15:11:31;;;;;;;4.50;1.70;;;20.50;66.20;;;;;;10365380;28;20018;-70
2023/05/20 15:16:31;;;;;;;2.58;1.40;;;20.80;65.30;;;;;;10349073;28;20059;-71
2023/05/20 15:21:32;;;;;;;2.88;1.67;;;20.40;65.00;;;;;;10355590;28;20026;-71
2023/05/20 15:26:32;;;;;;;4.70;1.73;;;20.30;65.70;;;;;;10356185;28;20113;-71
2023/05/20 15:31:33;;;;;;;3.40;2.10;;;20.40;65.60;;;;;;10329489;28;20022;-70
2023/05/20 15:36:34;;;;;;;3.75;1.45;;;20.30;66.00;;;;;;10364898;28;20215;-70
2023/05/20 15:41:36;;;;;;;5.25;1.52;;;20.00;66.20;;;;;;10324579;28;20033;-69
2023/05/20 15:46:37;;;;;;;4.28;1.67;;;19.90;66.60;;;;;;10348581;28;20315;-70
2023/05/20 15:51:38;;;;;;;5.75;2.72;;;19.70;66.70;;;;;;10352802;28;20045;-69
2023/05/20 15:56:38;;;;;;;4.55;1.60;;;19.70;67.20;;;;;;10344731;28;20021;-69
2023/05/20 16:01:39;;;;;;;3.53;1.80;;;19.60;67.80;;;;;;10350751;28;20026;-70
2023/05/20 16:06:40;;;;;;;5.10;2.10;;;19.60;67.20;;;;;;10348203;28;20482;-70
2023/05/20 16:11:40;;;;;;;3.17;1.67;;;19.50;67.60;;;;;;10359781;28;20014;-71
2023/05/20 16:16:41;;;;;;;4.90;2.17;;;19.50;67.80;;;;;;10346128;28;20042;-71
2023/05/20 16:21:41;;;;;;;4.10;1.88;;;19.50;68.30;;;;;;10337777;28;20030;-70
2023/05/20 16:26:42;;;;;;;3.15;2.08;;;19.40;68.40;;;;;;10336586;28;20045;-71
2023/05/20 16:31:45;;;;;;;3.22;1.60;;;19.30;68.60;;;;;;10366421;28;20030;-71
2023/05/20 16:36:45;;;;;;;4.18;2.00;;;19.10;68.80;;;;;;10349269;28;20033;-71
2023/05/20 16:41:46;;;;;;;2.35;1.23;;;19.10;69.10;;;;;;10350768;28;20386;-71
2023/05/20 16:46:47;;;;;;;2.95;1.45;;;19.10;69.30;;;;;;10370440;28;20040;-73
2023/05/20 16:51:48;;;;;;;1.80;1.27;;;19.10;69.40;;;;;;10360800;28;20030;-66
2023/05/20 16:56:49;;;;;;;2.20;1.42;;;19.10;69.70;;;;;;10355247;28;20034;-66
2023/05/20 17:01:50;;;;;;;4.32;1.40;;;19.20;70.00;;;;;;10364435;28;20437;-66
2023/05/20 17:06:50;;;;;;;2.75;1.20;;;19.20;70.10;;;;;;10373764;28;20037;-66
2023/05/20 17:11:53;;;;;;;4.35;1.33;;;19.30;70.30;;;;;;10361363;28;20030;-68
2023/05/20 17:16:53;;;;;;;3.70;1.38;;;19.40;70.50;;;;;;10362839;28;20045;-66
2023/05/20 17:21:54;;;;;;;1.80;1.15;;;19.40;70.60;;;;;;10354825;28;20167;-66
2023/05/20 17:26:55;;;;;;;3.20;1.55;;;19.40;70.80;;;;;;10346493;28;20046;-66
2023/05/20 17:31:55;;;;;;;2.85;1.38;;;19.40;71.00;;;;;;10357458;28;20030;-67
2023/05/20 17:36:56;;;;;;;1.60;1.40;;;19.40;71.20;;;;;;10338773;28;20052;-66
2023/05/20 17:41:57;;;;;;;2.45;1.20;;;19.40;71.40;;;;;;10352066;28;20084;-66
2023/05/20 17:46:57;;;;;;;2.00;1.13;;;19.30;71.60;;;;;;10355188;28;20042;-66
2023/05/20 17:51:58;;;;;;;1.20;1.10;;;19.30;71.80;;;;;;10333850;28;20029;-66
2023/05/20 17:56:59;;;;;;;2.28;1.20;;;19.30;72.00;;;;;;10354033;28;20066;-66
2023/05/20 18:01:59;;;;;;;4.38;1.30;;;19.20;72.20;;;;;;10337928;28;20496;-65
2023/05/20 18:07:02;;;;;;;2.17;1.05;;;19.20;72.50;;;;;;10354942;28;20045;-66
2023/05/20 18:12:03;;;;;;;3.20;1.30;;;19.20;72.60;;;;;;10353402;28;20025;-66
2023/05/20 18:17:04;;;;;;;2.03;1.40;;;19.20;72.80;;;;;;10355213;28;20038;-66
2023/05/20 18:22:06;;;;;;;1.13;1.00;;;19.20;73.00;;;;;;10356464;28;20084;-66
2023/05/20 18:27:06;;;;;;;1.45;1.05;;;19.20;73.10;;;;;;10355922;28;20034;-66
2023/05/20 18:32:07;;;;;;;3.30;1.17;;;19.10;73.20;;;;;;10343141;28;20289;-65
2023/05/20 18:37:08;;;;;;;2.20;1.13;;;19.10;73.40;;;;;;10356810;28;20021;-66
2023/05/20 18:42:08;;;;;;;2.00;1.00;;;19.10;73.60;;;;;;10351261;28;20036;-65
2023/05/20 18:47:09;;;;;;;1.63;1.15;;;19.00;73.60;;;;;;10349300;28;20502;-66
2023/05/20 18:52:10;;;;;;;1.30;1.20;;;19.00;73.80;;;;;;10354075;28;20048;-66
2023/05/20 18:57:10;;;;;;;1.67;1.10;;;18.90;73.90;;;;;;10344243;28;20018;-66
2023/05/20 19:02:11;;;;;;;1.60;1.10;;;18.90;74.00;;;;;;10350135;28;20422;-66
2023/05/20 19:07:12;;;;;;;2.10;1.10;;;18.90;74.20;;;;;;10349047;28;20026;-66
2023/05/20 19:12:12;;;;;;;1.45;1.02;;;18.90;74.30;;;;;;10360310;28;20022;-66
2023/05/20 19:17:13;;;;;;;2.88;1.05;;;18.80;74.30;;;;;;10350561;28;20034;-66
2023/05/20 19:22:14;;;;;;;2.00;1.02;;;18.80;74.40;;;;;;10355910;28;20081;-66
2023/05/20 19:27:14;;;;;;;2.25;1.00;;;18.80;74.60;;;;;;10363486;28;20033;-66
2023/05/20 19:32:15;;;;;;;1.58;1.08;;;18.80;74.80;;;;;;10353545;28;20030;-66
2023/05/20 19:37:15;;;;;;;1.60;1.20;;;18.70;74.80;;;;;;10357142;28;20056;-65
2023/05/20 19:42:16;;;;;;;1.10;0.88;;;18.70;74.90;;;;;;10354735;28;20022;-65
2023/05/20 19:47:17;;;;;;;2.15;1.13;;;18.70;75.00;;;;;;10352636;28;20475;-65
2023/05/20 19:52:18;;;;;;;2.60;1.15;;;18.70;75.10;;;;;;10356990;28;20383;-65
2023/05/20 19:57:19;;;;;;;3.53;1.10;;;18.70;75.40;;;;;;10355297;28;20022;-66
2023/05/20 20:02:20;;;;;;;1.48;1.30;;;18.60;75.40;;;;;;10354182;28;20571;-66
2023/05/20 20:07:20;;;;;;;2.78;1.25;;;18.60;75.50;;;;;;10352095;28;20117;-66
2023/05/20 20:12:21;;;;;;;1.55;1.05;;;18.60;75.60;;;;;;10345326;28;20036;-66
2023/05/20 20:17:22;;;;;;;1.40;1.25;;;18.50;75.70;;;;;;10360359;28;20048;-66
2023/05/20 20:22:23;;;;;;;1.63;1.30;;;18.50;75.80;;;;;;10352676;28;20026;-66
2023/05/20 20:27:23;;;;;;;1.48;1.17;;;18.50;76.00;;;;;;10364147;28;20022;-66
2023/05/20 20:32:25;;;;;;;1.35;1.10;;;18.50;76.00;;;;;;10342088;28;20413;-66
2023/05/20 20:37:26;;;;;;;1.35;1.08;;;18.50;76.10;;;;;;10370921;28;20498;-66
2023/05/20 20:42:26;;;;;;;1.42;1.13;;;18.30;76.00;;;;;;10359565;28;20037;-67
2023/05/20 20:47:27;;;;;;;1.83;1.25;;;18.40;76.20;;;;;;10359619;28;20049;-67
2023/05/20 20:52:28;;;;;;;2.33;1.30;;;18.40;76.30;;;;;;10362928;28;20033;-66
2023/05/20 20:57:30;;;;;;;2.30;1.10;;;18.40;76.40;;;;;;10364690;28;20029;-68
2023/05/20 21:02:31;;;;;;;1.13;1.02;;;18.40;76.50;;;;;;10363166;28;20022;-68
2023/05/20 21:07:32;;;;;;;1.70;1.30;;;18.30;76.50;;;;;;10351791;28;20702;-68
2023/05/20 21:12:33;;;;;;;2.35;1.50;;;18.30;76.60;;;;;;10366341;28;20442;-68
2023/05/20 21:17:33;;;;;;;1.38;1.20;;;18.30;76.70;;;;;;10347357;28;20498;-68
2023/05/20 21:22:34;;;;;;;1.67;1.48;;;18.20;76.70;;;;;;10369518;28;20022;-67
2023/05/20 21:27:35;;;;;;;2.15;1.33;;;18.20;76.80;;;;;;10368790;28;20029;-68
2023/05/20 21:32:36;;;;;;;1.60;1.23;;;18.20;76.90;;;;;;10365620;28;20257;-68
2023/05/20 21:37:36;;;;;;;1.88;1.45;;;18.20;77.00;;;;;;10361622;28;20054;-67
2023/05/20 21:42:37;;;;;;;2.00;1.25;;;18.20;77.10;;;;;;10363659;28;20453;-67
2023/05/20 21:47:38;;;;;;;2.35;1.40;;;18.20;77.20;;;;;;10363729;28;20032;-67
2023/05/20 21:52:38;;;;;;;1.20;1.00;;;18.10;77.20;;;;;;10363055;28;20029;-68
2023/05/20 21:57:39;;;;;;;2.10;1.10;;;18.10;77.30;;;;;;10357888;28;20033;-67
2023/05/20 22:02:40;;;;;;;1.45;1.35;;;18.10;77.30;;;;;;10361187;28;20564;-68
2023/05/20 22:07:42;;;;;;;1.77;1.35;;;18.10;77.40;;;;;;10341581;28;20554;-67
2023/05/20 22:12:43;;;;;;;1.90;1.50;;;18.10;77.50;;;;;;10359256;28;20121;-68
2023/05/20 22:17:46;;;;;;;1.30;1.08;;;18.00;77.50;;;;;;10356759;28;20501;-68
2023/05/20 22:22:46;;;;;;;1.30;1.20;;;18.00;77.60;;;;;;10356524;28;20034;-69
2023/05/20 22:27:47;;;;;;;1.50;1.25;;;18.00;77.70;;;;;;10363211;28;20034;-66
2023/05/20 22:32:48;;;;;;;1.58;1.30;;;18.00;78.30;;;;;;10359567;28;20646;-68
2023/05/20 22:37:48;;;;;;;1.40;1.30;;;18.00;77.90;;;;;;10370866;28;20026;-67
2023/05/20 22:42:49;;;;;;;1.63;1.40;;;18.00;77.90;;;;;;10356242;28;20036;-67
2023/05/20 22:47:50;;;;;;;1.45;1.10;;;17.90;78.00;;;;;;10359791;28;20132;-67
2023/05/20 22:52:50;;;;;;;1.83;1.42;;;17.90;78.00;;;;;;10353046;28;20037;-67
2023/05/20 22:57:51;;;;;;;2.80;1.50;;;17.90;78.10;;;;;;10352625;28;20056;-66
2023/05/20 23:02:52;;;;;;;1.90;1.40;;;17.90;78.10;;;;;;10358971;28;20037;-67
2023/05/20 23:07:53;;;;;;;1.88;1.67;;;18.00;78.30;;;;;;10361546;28;20525;-67
2023/05/20 23:12:54;;;;;;;2.20;1.27;;;17.80;78.30;;;;;;10361078;28;20021;-67
2023/05/20 23:17:54;;;;;;;2.13;1.52;;;17.80;78.40;;;;;;10365489;28;20060;-67
2023/05/20 23:22:55;;;;;;;1.60;1.35;;;17.80;78.50;;;;;;10341444;28;20022;-67
2023/05/20 23:27:55;;;;;;;2.95;1.38;;;17.80;78.60;;;;;;10352356;28;20033;-67
2023/05/20 23:32:56;;;;;;;2.08;1.50;;;17.70;78.60;;;;;;10352732;28;20044;-68
2023/05/20 23:37:57;;;;;;;1.95;1.30;;;17.70;78.80;;;;;;10350455;28;20025;-67
2023/05/20 23:42:57;;;;;;;2.70;1.50;;;17.70;78.80;;;;;;10365899;28;20033;-67
2023/05/20 23:48:00;;;;;;;3.88;1.80;;;17.70;78.90;;;;;;10354023;28;20040;-67
2023/05/20 23:53:00;;;;;;;1.85;1.50;;;17.70;79.00;;;;;;10348480;28;20021;-67
2023/05/20 23:58:01;;;;;;;1.67;1.42;;;17.70;79.10;;;;;;10339400;28;20440;-67
